Time;durP1;ratioP1;P1;durP2;ratioP2;P2;SDS_P1;SDS_P2;PMS_P1;PMS_P2;Temp;Humidity;BMP_temperature;BMP_pressure;BME280_temperature;BME280_humidity;BME280_pressure;Samples;Min_cycle;Max_cycle;Signal;HPM_P1;HPM_P2
2023/08/11 00:02:22;;;;;;;;;;;;;;;27.65;31.60;100707.34;5055024;28;20004;-66
2023/08/11 00:04:48;;;;;;;;;;;;;;;27.60;31.61;100700.78;5053767;28;19936;-66
2023/08/11 00:07:13;;;;;;;;;;;;;;;27.58;31.71;100703.03;5047181;28;20376;-66
2023/08/11 00:09:39;;;;;;;;;;;;;;;27.54;31.70;100710.25;5073398;28;20411;-66
2023/08/11 00:12:06;;;;;;;;;;;;;;;27.53;31.83;100707.81;5055706;28;19923;-66
2023/08/11 00:14:31;;;;;;;;;;;;;;;27.54;31.52;100712.22;5073354;28;19916;-66
2023/08/11 00:16:58;;;;;;;;;;;;;;;27.54;31.63;100712.22;5073547;28;19916;-66
2023/08/11 00:19:23;;;;;;;;;;;;;;;27.52;31.65;100706.97;5073392;28;20276;-66
2023/08/11 00:21:48;;;;;;;;;;;;;;;27.50;31.59;100712.00;5072007;28;19913;-66
2023/08/11 00:24:14;;;;;;;;;;;;;;;27.50;31.35;100711.19;5073053;28;19922;-66
2023/08/11 00:26:39;;;;;;;;;;;;;;;27.49;31.86;100715.03;5074056;28;19913;-66
2023/08/11 00:29:04;;;;;;;;;;;;;;;27.52;31.78;100715.25;5075599;28;19917;-66
2023/08/11 00:31:30;;;;;;;;;;;;;;;27.50;31.82;100714.75;5075666;28;20416;-66
2023/08/11 00:33:55;;;;;;;;;;;;;;;27.52;31.78;100714.44;5074049;28;19923;-66
2023/08/11 00:36:20;;;;;;;;;;;;;;;27.54;31.69;100717.72;5072990;28;19920;-66
2023/08/11 00:38:46;;;;;;;;;;;;;;;27.51;32.02;100721.91;5073069;28;20053;-66
2023/08/11 00:41:11;;;;;;;;;;;;;;;27.49;31.55;100723.31;5073302;28;19913;-66
2023/08/11 00:43:36;;;;;;;;;;;;;;;27.50;31.50;100733.25;5075440;28;19912;-66
2023/08/11 00:46:07;;;;;;;;;;;;;;;27.51;31.65;100727.44;5093658;28;20279;-66
2023/08/11 00:48:32;;;;;;;;;;;;;;;27.51;31.53;100727.44;5093200;28;19919;-66
2023/08/11 00:50:58;;;;;;;;;;;;;;;27.49;31.71;100723.31;5093186;28;19913;-67
2023/08/11 00:53:24;;;;;;;;;;;;;;;27.51;31.65;100730.19;5092969;28;19966;-66
2023/08/11 00:55:51;;;;;;;;;;;;;;;27.50;31.63;100731.31;5093212;28;19912;-66
2023/08/11 00:58:17;;;;;;;;;;;;;;;27.51;31.68;100735.72;5093141;28;20390;-66
2023/08/11 01:00:43;;;;;;;;;;;;;;;27.51;31.73;100737.66;5075172;28;20028;-66
2023/08/11 01:03:09;;;;;;;;;;;;;;;27.48;31.71;100733.53;5084042;28;19920;-66
2023/08/11 01:05:38;;;;;;;;;;;;;;;27.46;31.69;100727.50;5072724;28;19916;-66
2023/08/11 01:08:14;;;;;;;;;;;;;;;27.47;32.02;100731.91;5054844;28;19916;-66
2023/08/11 01:10:55;;;;;;;;;;;;;;;27.49;31.76;100735.19;5073010;28;20315;-66
2023/08/11 01:13:21;;;;;;;;;;;;;;;27.51;31.70;100738.47;5072691;28;19913;-67
2023/08/11 01:15:51;;;;;;;;;;;;;;;27.49;31.53;100731.59;5072597;28;19912;-67
2023/08/11 01:18:17;;;;;;;;;;;;;;;27.50;31.70;100739.56;5072631;28;20434;-67
2023/08/11 01:20:43;;;;;;;;;;;;;;;27.50;31.69;100744.28;5072414;28;19912;-67
2023/08/11 01:23:16;;;;;;;;;;;;;;;27.49;31.97;100740.72;5072491;28;19912;-66
2023/08/11 01:25:41;;;;;;;;;;;;;;;27.51;31.43;100741.22;5072168;28;20280;-67
2023/08/11 01:28:07;;;;;;;;;;;;;;;27.51;31.75;100732.16;5072746;28;19919;-67
2023/08/11 01:30:35;;;;;;;;;;;;;;;27.52;31.75;100736.53;5072076;28;19917;-67
2023/08/11 01:33:01;;;;;;;;;;;;;;;27.48;31.96;100736.31;5073708;28;20361;-67
2023/08/11 01:35:27;;;;;;;;;;;;;;;27.47;31.97;100740.19;5076955;28;19912;-67
2023/08/11 01:37:53;;;;;;;;;;;;;;;27.48;32.02;100738.25;5075932;28;19913;-67
2023/08/11 01:40:18;;;;;;;;;;;;;;;27.44;31.72;100743.53;5076691;28;19913;-67
2023/08/11 01:42:44;;;;;;;;;;;;;;;27.40;31.88;100740.56;5076726;28;19912;-67
2023/08/11 01:45:11;;;;;;;;;;;;;;;27.43;31.61;100739.13;5091919;28;20296;-67
2023/08/11 01:47:36;;;;;;;;;;;;;;;27.43;31.72;100730.88;5097065;28;19916;-67
2023/08/11 01:50:03;;;;;;;;;;;;;;;27.45;31.71;100738.84;5096732;28;19913;-67
2023/08/11 01:52:33;;;;;;;;;;;;;;;27.44;31.87;100732.50;5096478;28;20253;-66
2023/08/11 01:54:58;;;;;;;;;;;;;;;27.45;31.83;100727.81;5078167;28;20590;-67
2023/08/11 01:57:24;;;;;;;;;;;;;;;27.42;31.99;100732.81;5096685;28;20015;-66
2023/08/11 01:59:49;;;;;;;;;;;;;;;27.40;32.27;100721.25;5084260;28;19986;-67
2023/08/11 02:02:15;;;;;;;;;;;;;;;27.39;32.00;100724.31;5076178;28;19947;-67
2023/08/11 02:04:40;;;;;;;;;;;;;;;27.39;32.10;100724.31;5076508;28;20407;-66
2023/08/11 02:07:05;;;;;;;;;;;;;;;27.38;32.07;100719.94;5076294;28;20310;-66
2023/08/11 02:09:31;;;;;;;;;;;;;;;27.39;32.00;100722.38;5076248;28;19920;-65
2023/08/11 02:11:56;;;;;;;;;;;;;;;27.38;32.32;100725.44;5076244;28;20289;-66
2023/08/11 02:14:23;;;;;;;;;;;;;;;27.40;31.99;100723.22;5075858;28;20276;-66
2023/08/11 02:16:49;;;;;;;;;;;;;;;27.40;32.28;100710.22;5075900;28;19919;-67
2023/08/11 02:19:14;;;;;;;;;;;;;;;27.41;32.34;100722.06;5057696;28;19916;-67
2023/08/11 02:21:40;;;;;;;;;;;;;;;27.40;32.15;100720.44;5075477;28;19919;-67
2023/08/11 02:24:05;;;;;;;;;;;;;;;27.39;32.25;100713.28;5075726;28;20012;-67
2023/08/11 02:26:32;;;;;;;;;;;;;;;27.40;32.01;100720.44;5075839;28;19999;-67
2023/08/11 02:28:58;;;;;;;;;;;;;;;27.39;31.99;100718.78;5075797;28;19969;-67
2023/08/11 02:31:25;;;;;;;;;;;;;;;27.40;32.03;100712.97;5076037;28;19912;-67
2023/08/11 02:33:51;;;;;;;;;;;;;;;27.38;32.37;100711.66;5075410;28;19939;-67
2023/08/11 02:36:16;;;;;;;;;;;;;;;27.38;32.21;100712.47;5075022;28;19924;-67
2023/08/11 02:38:41;;;;;;;;;;;;;;;27.33;32.42;100718.06;5075863;28;19944;-67
2023/08/11 02:41:07;;;;;;;;;;;;;;;27.36;32.16;100723.00;5075691;28;19913;-67
2023/08/11 02:43:36;;;;;;;;;;;;;;;27.39;32.10;100719.59;5077094;28;19916;-67
2023/08/11 02:46:03;;;;;;;;;;;;;;;27.39;31.96;100718.78;5077009;28;19916;-67
2023/08/11 02:48:28;;;;;;;;;;;;;;;27.31;32.13;100713.97;5095664;28;19916;-67
2023/08/11 02:50:54;;;;;;;;;;;;;;;27.27;32.06;100718.47;5095273;28;19919;-67
2023/08/11 02:53:19;;;;;;;;;;;;;;;27.26;32.28;100725.09;5095279;28;19923;-67
2023/08/11 02:55:44;;;;;;;;;;;;;;;27.22;32.25;100724.81;5085278;28;20120;-67
2023/08/11 02:58:11;;;;;;;;;;;;;;;27.21;32.18;100729.53;5074653;28;20302;-67
2023/08/11 03:00:36;;;;;;;;;;;;;;;27.22;32.74;100727.59;5075061;28;19916;-66
2023/08/11 03:03:02;;;;;;;;;;;;;;;27.22;32.56;100724.81;5081629;28;20472;-66
2023/08/11 03:05:27;;;;;;;;;;;;;;;27.21;32.27;100726.78;5095285;28;20418;-66
2023/08/11 03:07:52;;;;;;;;;;;;;;;27.21;32.49;100726.78;5095440;28;20010;-66
2023/08/11 03:10:18;;;;;;;;;;;;;;;27.21;32.49;100728.72;5094904;28;19912;-66
2023/08/11 03:12:43;;;;;;;;;;;;;;;27.20;32.38;100733.41;5090617;28;19948;-66
2023/08/11 03:15:08;;;;;;;;;;;;;;;27.19;32.63;100741.97;5074579;28;19917;-66
2023/08/11 03:17:37;;;;;;;;;;;;;;;27.17;32.40;100733.16;5074764;28;19916;-66
2023/08/11 03:20:05;;;;;;;;;;;;;;;27.16;32.36;100737.88;5074674;28;19912;-66
2023/08/11 03:22:30;;;;;;;;;;;;;;;27.16;32.38;100739.81;5056383;28;19923;-67
2023/08/11 03:24:57;;;;;;;;;;;;;;;27.17;32.27;100744.19;5056377;28;19920;-66
2023/08/11 03:27:22;;;;;;;;;;;;;;;27.16;32.52;100739.81;5074542;28;19912;-67
2023/08/11 03:29:48;;;;;;;;;;;;;;;27.17;32.29;100741.44;5074692;28;20011;-67
2023/08/11 03:32:14;;;;;;;;;;;;;;;27.16;32.23;100729.59;5074444;28;20066;-67
2023/08/11 03:34:41;;;;;;;;;;;;;;;27.18;32.44;100738.38;5074341;28;19913;-66
2023/08/11 03:37:06;;;;;;;;;;;;;;;27.14;32.42;100731.84;5073415;28;19923;-67
2023/08/11 03:39:32;;;;;;;;;;;;;;;27.13;32.31;100735.69;5056351;28;19912;-66
2023/08/11 03:41:57;;;;;;;;;;;;;;;27.13;32.57;100738.47;5074343;28;20365;-67
2023/08/11 03:44:22;;;;;;;;;;;;;;;27.14;32.37;100742.88;5082785;28;19918;-66
2023/08/11 03:46:48;;;;;;;;;;;;;;;27.16;32.29;100745.34;5094543;28;20222;-66
2023/08/11 03:49:13;;;;;;;;;;;;;;;27.16;32.24;100754.41;5094169;28;19912;-66
2023/08/11 03:51:39;;;;;;;;;;;;;;;27.16;32.47;100754.41;5087666;28;19912;-67
2023/08/11 03:54:04;;;;;;;;;;;;;;;27.16;32.33;100750.84;5074159;28;20004;-66
2023/08/11 03:56:30;;;;;;;;;;;;;;;27.16;32.25;100753.59;5073423;28;19924;-67
2023/08/11 03:58:55;;;;;;;;;;;;;;;27.17;32.13;100766.25;5078811;28;19920;-67
2023/08/11 04:01:20;;;;;;;;;;;;;;;27.15;32.22;100762.97;5094018;28;19912;-67
2023/08/11 04:03:46;;;;;;;;;;;;;;;27.17;32.23;100763.50;5093908;28;19920;-66
2023/08/11 04:06:11;;;;;;;;;;;;;;;27.17;32.01;100767.09;5089049;28;20364;-66
2023/08/11 04:08:37;;;;;;;;;;;;;;;27.15;31.98;100763.78;5073315;28;19916;-66
2023/08/11 04:11:02;;;;;;;;;;;;;;;27.20;32.05;100765.66;5073551;28;19912;-66
2023/08/11 04:13:28;;;;;;;;;;;;;;;27.15;32.28;100763.78;5073546;28;19917;-66
2023/08/11 04:15:53;;;;;;;;;;;;;;;27.13;32.17;100760.50;5073379;28;20009;-66
2023/08/11 04:18:19;;;;;;;;;;;;;;;27.14;32.02;100759.41;5083980;28;19923;-66
2023/08/11 04:20:46;;;;;;;;;;;;;;;27.12;32.50;100769.13;5094750;28;20292;-66
2023/08/11 04:23:12;;;;;;;;;;;;;;;27.14;32.20;100762.16;5093747;28;19955;-67
2023/08/11 04:25:37;;;;;;;;;;;;;;;27.15;32.33;100763.78;5075607;28;20394;-66
2023/08/11 04:28:02;;;;;;;;;;;;;;;27.19;32.38;100767.63;5075320;28;20037;-66
2023/08/11 04:30:28;;;;;;;;;;;;;;;27.27;32.26;100762.59;5093552;28;19912;-66
2023/08/11 04:32:53;;;;;;;;;;;;;;;27.29;32.19;100763.09;5093902;28;19973;-66
2023/08/11 04:35:18;;;;;;;;;;;;;;;27.35;32.30;100756.38;5093415;28;19919;-66
2023/08/11 04:37:44;;;;;;;;;;;;;;;27.37;32.15;100762.41;5093140;28;19951;-66
2023/08/11 04:40:13;;;;;;;;;;;;;;;27.39;32.06;100760.97;5093571;28;19956;-66
2023/08/11 04:42:42;;;;;;;;;;;;;;;27.43;31.93;100758.44;5093558;28;19912;-66
2023/08/11 04:45:08;;;;;;;;;;;;;;;27.43;31.86;100761.19;5074946;28;19920;-66
2023/08/11 04:47:34;;;;;;;;;;;;;;;27.47;31.86;100764.19;5089050;28;19916;-66
2023/08/11 04:49:59;;;;;;;;;;;;;;;27.52;31.92;100761.34;5072887;28;19919;-65
2023/08/11 04:52:24;;;;;;;;;;;;;;;27.52;31.76;100755.84;5072835;28;19916;-65
2023/08/11 04:54:50;;;;;;;;;;;;;;;27.54;31.96;100759.09;5074381;28;19935;-65
2023/08/11 04:57:15;;;;;;;;;;;;;;;27.51;31.98;100759.72;5093150;28;19928;-65
2023/08/11 04:59:41;;;;;;;;;;;;;;;27.50;32.18;100755.31;5093146;28;20536;-65
2023/08/11 05:02:06;;;;;;;;;;;;;;;27.42;31.84;100763.16;5093195;28;19923;-65
2023/08/11 05:04:33;;;;;;;;;;;;;;;27.41;31.81;100763.44;5074722;28;19927;-65
2023/08/11 05:07:00;;;;;;;;;;;;;;;27.23;31.62;100751.28;5093484;28;19961;-65
2023/08/11 05:09:25;;;;;;;;;;;;;;;27.22;31.65;100766.19;5092591;28;19916;-65
2023/08/11 05:11:51;;;;;;;;;;;;;;;27.19;31.67;100766.78;5092556;28;19912;-65
2023/08/11 05:14:17;;;;;;;;;;;;;;;27.24;31.62;100764.75;5092933;28;19934;-65
2023/08/11 05:16:43;;;;;;;;;;;;;;;27.33;31.82;100764.94;5092869;28;19913;-65
2023/08/11 05:19:09;;;;;;;;;;;;;;;27.26;31.43;100774.72;5092903;28;19954;-65
2023/08/11 05:21:34;;;;;;;;;;;;;;;27.29;31.83;100763.09;5092328;28;20277;-65
2023/08/11 05:24:00;;;;;;;;;;;;;;;27.36;31.88;100775.41;5092661;28;20285;-65
2023/08/11 05:26:25;;;;;;;;;;;;;;;27.42;31.88;100778.91;5092577;28;19916;-65
2023/08/11 05:28:50;;;;;;;;;;;;;;;27.42;31.62;100771.44;5092755;28;19916;-65
2023/08/11 05:31:17;;;;;;;;;;;;;;;27.45;31.51;100781.06;5092657;28;19913;-65
2023/08/11 05:33:42;;;;;;;;;;;;;;;27.45;31.65;100789.34;5092788;28;20241;-64
2023/08/11 05:36:07;;;;;;;;;;;;;;;27.47;31.34;100787.09;5092269;28;19920;-65
2023/08/11 05:38:32;;;;;;;;;;;;;;;27.51;31.64;100790.06;5092752;28;20418;-65
2023/08/11 05:40:58;;;;;;;;;;;;;;;27.50;31.54;100782.91;5092673;28;19912;-65
2023/08/11 05:43:23;;;;;;;;;;;;;;;27.51;31.43;100788.13;5091709;28;19919;-65
2023/08/11 05:45:50;;;;;;;;;;;;;;;27.53;31.54;100790.59;5072483;28;19928;-66
2023/08/11 05:48:15;;;;;;;;;;;;;;;27.56;31.35;100787.22;5072119;28;20026;-65
2023/08/11 05:50:43;;;;;;;;;;;;;;;27.58;31.56;100785.81;5072184;28;19912;-65
2023/08/11 05:53:08;;;;;;;;;;;;;;;27.60;31.25;100788.28;5090869;28;20257;-65
2023/08/11 05:55:33;;;;;;;;;;;;;;;27.58;31.47;100779.44;5092410;28;19920;-65
2023/08/11 05:57:59;;;;;;;;;;;;;;;27.61;31.01;100781.63;5092493;28;19918;-65
2023/08/11 06:00:24;;;;;;;;;;;;;;;27.63;31.50;100786.84;5092803;28;19958;-66
2023/08/11 06:02:49;;;;;;;;;;;;;;;27.66;31.23;100780.72;5092601;28;19916;-66
2023/08/11 06:05:15;;;;;;;;;;;;;;;27.67;31.58;100777.66;5075469;28;19926;-62
2023/08/11 06:07:40;;;;;;;;;;;;;;;27.69;31.38;100775.44;5072050;28;19985;-62
2023/08/11 06:10:06;;;;;;;;;;;;;;;27.73;31.37;100784.75;5071863;28;19926;-63
2023/08/11 06:12:31;;;;;;;;;;;;;;;27.73;31.79;100779.22;5071850;28;19916;-62
2023/08/11 06:14:56;;;;;;;;;;;;;;;27.73;31.51;100779.22;5052890;28;20380;-62
2023/08/11 06:17:22;;;;;;;;;;;;;;;27.83;31.41;100789.25;5071312;28;19916;-62
2023/08/11 06:19:47;;;;;;;;;;;;;;;27.86;31.51;100782.31;5074484;28;19924;-62
2023/08/11 06:22:13;;;;;;;;;;;;;;;27.93;31.71;100780.00;5074814;28;19916;-62
2023/08/11 06:24:38;;;;;;;;;;;;;;;27.99;31.70;100785.16;5075317;28;19912;-62
2023/08/11 06:27:04;;;;;;;;;;;;;;;28.04;31.38;100789.75;5075299;28;19917;-62
2023/08/11 06:29:29;;;;;;;;;;;;;;;28.14;31.67;100791.53;5065481;28;19943;-62
2023/08/11 06:31:54;;;;;;;;;;;;;;;28.24;31.54;100788.56;5070019;28;19923;-62
2023/08/11 06:34:21;;;;;;;;;;;;;;;28.29;31.23;100788.47;5075379;28;20671;-63
2023/08/11 06:36:46;;;;;;;;;;;;;;;28.35;30.78;100794.72;5074562;28;19963;-63
2023/08/11 06:39:12;;;;;;;;;;;;;;;28.39;31.04;100790.22;5075282;28;19967;-63
2023/08/11 06:41:38;;;;;;;;;;;;;;;28.43;30.02;100791.25;5075213;28;19913;-63
2023/08/11 06:44:04;;;;;;;;;;;;;;;28.45;30.26;100794.50;5081256;28;19952;-63
2023/08/11 06:46:29;;;;;;;;;;;;;;;28.54;30.50;100794.66;5095482;28;20370;-63
2023/08/11 06:48:54;;;;;;;;;;;;;;;28.59;30.78;100794.56;5094785;28;19923;-63
2023/08/11 06:51:19;;;;;;;;;;;;;;;28.66;30.30;100794.13;5094914;28;20006;-63
2023/08/11 06:53:45;;;;;;;;;;;;;;;28.75;30.62;100806.09;5094915;28;19916;-63
2023/08/11 06:56:10;;;;;;;;;;;;;;;28.81;30.39;100809.59;5076757;28;20404;-63
2023/08/11 06:58:35;;;;;;;;;;;;;;;28.83;29.83;100813.69;5094927;28;19951;-63
2023/08/11 07:01:00;;;;;;;;;;;;;;;28.88;30.03;100805.31;5095041;28;19965;-62
2023/08/11 07:03:26;;;;;;;;;;;;;;;28.99;30.32;100811.41;5094571;28;20343;-63
2023/08/11 07:05:51;;;;;;;;;;;;;;;29.02;30.63;100808.03;5094820;28;19918;-63
2023/08/11 07:08:17;;;;;;;;;;;;;;;29.13;30.29;100809.47;5094903;28;19918;-63
2023/08/11 07:10:43;;;;;;;;;;;;;;;29.15;29.30;100815.50;5094922;28;20266;-63
2023/08/11 07:13:08;;;;;;;;;;;;;;;29.17;30.19;100817.97;5076853;28;19950;-63
2023/08/11 07:15:33;;;;;;;;;;;;;;;29.20;29.99;100817.34;5094767;28;20436;-63
2023/08/11 07:17:59;;;;;;;;;;;;;;;29.27;29.75;100820.53;5094606;28;19912;-63
2023/08/11 07:20:24;;;;;;;;;;;;;;;29.38;29.84;100823.84;5094428;28;19912;-64
2023/08/11 07:22:49;;;;;;;;;;;;;;;29.42;29.49;100819.34;5094567;28;19916;-63
2023/08/11 07:25:14;;;;;;;;;;;;;;;29.47;28.95;100818.41;5094292;28;19916;-63
2023/08/11 07:27:40;;;;;;;;;;;;;;;29.54;29.23;100824.31;5094361;28;19916;-62
2023/08/11 07:30:05;;;;;;;;;;;;;;;29.59;28.84;100815.06;5094218;28;19923;-63
2023/08/11 07:32:31;;;;;;;;;;;;;;;29.63;29.67;100811.38;5094376;28;20480;-63
2023/08/11 07:34:56;;;;;;;;;;;;;;;29.65;29.25;100811.06;5094546;28;19957;-63
2023/08/11 07:37:21;;;;;;;;;;;;;;;29.74;29.33;100811.97;5080822;28;19920;-63
2023/08/11 07:39:47;;;;;;;;;;;;;;;29.74;29.10;100814.75;5074612;28;20320;-63
2023/08/11 07:42:12;;;;;;;;;;;;;;;29.71;28.41;100815.34;5074433;28;20376;-63
2023/08/11 07:44:38;;;;;;;;;;;;;;;29.69;29.11;100821.19;5085366;28;19922;-63
2023/08/11 07:47:03;;;;;;;;;;;;;;;29.68;29.16;100814.03;5094580;28;20007;-64
2023/08/11 07:49:28;;;;;;;;;;;;;;;29.66;29.01;100812.69;5094047;28;19969;-63
2023/08/11 07:51:54;;;;;;;;;;;;;;;29.69;28.75;100817.59;5094479;28;19912;-63
2023/08/11 07:54:19;;;;;;;;;;;;;;;29.73;28.57;100821.38;5076008;28;19912;-63
2023/08/11 07:56:44;;;;;;;;;;;;;;;29.76;28.64;100823.56;5088508;28;19916;-64
2023/08/11 07:59:10;;;;;;;;;;;;;;;29.65;28.90;100820.19;5073785;28;19995;-63
2023/08/11 08:01:36;;;;;;;;;;;;;;;29.66;28.80;100823.75;5074206;28;19923;-63
2023/08/11 08:04:02;;;;;;;;;;;;;;;29.56;27.77;100829.56;5073791;28;19926;-63
2023/08/11 08:06:27;;;;;;;;;;;;;;;29.59;28.19;100828.91;5073720;28;20019;-63
2023/08/11 08:08:54;;;;;;;;;;;;;;;29.64;28.46;100828.78;5073926;28;19920;-63
2023/08/11 08:11:20;;;;;;;;;;;;;;;29.65;27.89;100834.03;5073448;28;19912;-63
2023/08/11 08:13:45;;;;;;;;;;;;;;;29.60;28.12;100830.56;5073709;28;19916;-63
2023/08/11 08:16:10;;;;;;;;;;;;;;;29.57;28.14;100828.41;5074026;28;19978;-63
2023/08/11 08:18:36;;;;;;;;;;;;;;;29.53;27.77;100837.34;5073454;28;19916;-63
2023/08/11 08:21:01;;;;;;;;;;;;;;;29.58;28.21;100830.06;5073211;28;20290;-63
2023/08/11 08:23:26;;;;;;;;;;;;;;;29.59;28.58;100832.50;5072973;28;19991;-63
2023/08/11 08:25:52;;;;;;;;;;;;;;;29.62;28.51;100829.09;5072952;28;19988;-63
2023/08/11 08:28:17;;;;;;;;;;;;;;;29.74;28.85;100831.34;5073001;28;19966;-63
2023/08/11 08:30:42;;;;;;;;;;;;;;;29.86;28.39;100831.59;5073332;28;19946;-63
2023/08/11 08:33:08;;;;;;;;;;;;;;;29.95;28.01;100828.88;5073147;28;19917;-63
2023/08/11 08:35:34;;;;;;;;;;;;;;;29.91;28.32;100839.78;5072949;28;19920;-63
2023/08/11 08:37:59;;;;;;;;;;;;;;;29.99;28.04;100840.97;5072191;28;19916;-63
2023/08/11 08:40:26;;;;;;;;;;;;;;;30.15;28.53;100846.94;5072920;28;19918;-63
2023/08/11 08:42:51;;;;;;;;;;;;;;;30.27;27.92;100849.13;5072087;28;19923;-63
2023/08/11 08:45:17;;;;;;;;;;;;;;;30.36;28.57;100843.66;5088984;28;20364;-63
2023/08/11 08:47:43;;;;;;;;;;;;;;;30.47;28.47;100850.56;5092863;28;19912;-63
2023/08/11 08:50:09;;;;;;;;;;;;;;;30.37;27.92;100839.75;5092893;28;20268;-63
2023/08/11 08:52:35;;;;;;;;;;;;;;;30.34;28.19;100840.41;5092829;28;19916;-63
2023/08/11 08:55:01;;;;;;;;;;;;;;;30.42;27.22;100850.69;5074864;28;19912;-63
2023/08/11 08:57:26;;;;;;;;;;;;;;;30.43;27.55;100858.69;5064537;28;19932;-63
2023/08/11 08:59:52;;;;;;;;;;;;;;;30.49;28.18;100854.63;5052804;28;19916;-63
2023/08/11 09:02:18;;;;;;;;;;;;;;;30.55;27.79;100849.78;5052138;28;19920;-63
2023/08/11 09:04:45;;;;;;;;;;;;;;;30.43;27.64;100853.16;5052667;28;19917;-63
2023/08/11 09:07:10;;;;;;;;;;;;;;;30.51;27.84;100853.50;5052800;28;19956;-63
2023/08/11 09:09:35;;;;;;;;;;;;;;;30.35;26.19;100848.41;5052766;28;20001;-63
2023/08/11 09:12:01;;;;;;;;;;;;;;;30.42;27.69;100848.75;5052633;28;19916;-63
2023/08/11 09:14:27;;;;;;;;;;;;;;;30.42;27.06;100847.94;5052768;28;19924;-63
2023/08/11 09:16:53;;;;;;;;;;;;;;;30.41;27.28;100849.06;5052409;28;20003;-63
2023/08/11 09:19:19;;;;;;;;;;;;;;;30.30;27.81;100852.06;5052449;28;19913;-63
2023/08/11 09:21:44;;;;;;;;;;;;;;;30.06;26.64;100843.31;5052492;28;20296;-63
2023/08/11 09:24:13;;;;;;;;;;;;;;;29.80;26.95;100843.94;5052536;28;19967;-63
2023/08/11 09:26:44;;;;;;;;;;;;;;;29.64;27.45;100845.41;5034259;28;20020;-63
2023/08/11 09:29:09;;;;;;;;;;;;;;;29.65;28.07;100831.25;5052106;28;20362;-63
2023/08/11 09:31:34;;;;;;;;;;;;;;;29.64;28.07;100837.94;5052329;28;19923;-63
2023/08/11 09:34:09;;;;;;;;;;;;;;;29.63;28.38;100839.06;5052582;28;19959;-63
2023/08/11 09:36:38;;;;;;;;;;;;;;;29.25;27.15;100844.06;5051125;28;19921;-62
2023/08/11 09:39:10;;;;;;;;;;;;;;;29.14;28.41;100846.25;5044553;28;19932;-62
2023/08/11 09:41:43;;;;;;;;;;;;;;;28.98;28.39;100842.97;5052146;28;19916;-62
2023/08/11 09:44:09;;;;;;;;;;;;;;;28.93;28.14;100851.38;5058789;28;19923;-62
2023/08/11 09:46:38;;;;;;;;;;;;;;;28.96;29.28;100853.53;5072228;28;20444;-64
2023/08/11 09:49:05;;;;;;;;;;;;;;;28.91;29.02;100859.16;5072272;28;19916;-63
2023/08/11 09:51:32;;;;;;;;;;;;;;;29.06;28.75;100858.81;5072108;28;19913;-63
2023/08/11 09:53:59;;;;;;;;;;;;;;;29.23;29.60;100855.44;5073703;28;19916;-63
2023/08/11 09:56:24;;;;;;;;;;;;;;;29.09;28.82;100858.22;5076211;28;19913;-63
2023/08/11 09:58:52;;;;;;;;;;;;;;;29.12;29.12;100854.00;5076061;28;19919;-63
2023/08/11 10:01:17;;;;;;;;;;;;;;;29.07;28.98;100848.59;5060576;28;20360;-62
2023/08/11 10:03:44;;;;;;;;;;;;;;;29.05;28.55;100857.19;5067889;28;19927;-63
2023/08/11 10:06:13;;;;;;;;;;;;;;;28.98;28.84;100851.25;5076000;28;19923;-63
2023/08/11 10:08:39;;;;;;;;;;;;;;;29.10;28.74;100843.28;5076320;28;19913;-63
2023/08/11 10:11:05;;;;;;;;;;;;;;;29.21;28.25;100852.19;5076300;28;19925;-64
2023/08/11 10:13:32;;;;;;;;;;;;;;;29.40;28.34;100843.75;5076020;28;19930;-63
2023/08/11 10:15:58;;;;;;;;;;;;;;;29.41;28.51;100844.56;5075995;28;19912;-63
2023/08/11 10:18:23;;;;;;;;;;;;;;;29.42;27.60;100844.25;5075684;28;19912;-63
2023/08/11 10:20:52;;;;;;;;;;;;;;;29.60;28.39;100842.44;5075877;28;20031;-63
2023/08/11 10:23:19;;;;;;;;;;;;;;;29.82;28.27;100833.34;5076073;28;20414;-63
2023/08/11 10:25:45;;;;;;;;;;;;;;;30.00;28.44;100836.25;5057632;28;19916;-63
2023/08/11 10:28:12;;;;;;;;;;;;;;;30.21;28.86;100839.31;5075654;28;19959;-63
2023/08/11 10:30:40;;;;;;;;;;;;;;;30.27;27.53;100843.56;5075712;28;19939;-63
2023/08/11 10:33:06;;;;;;;;;;;;;;;30.38;28.33;100839.44;5075804;28;20296;-64
2023/08/11 10:35:51;;;;;;;;;;;;;;;30.23;28.12;100790.75;5075810;28;19912;-63
2023/08/11 10:38:22;;;;;;;;;;;;;;;30.77;27.37;100834.22;5075349;28;20019;-64
2023/08/11 10:40:48;;;;;;;;;;;;;;;30.76;28.02;100833.41;5075202;28;20356;-63
2023/08/11 10:43:15;;;;;;;;;;;;;;;30.87;28.05;100831.16;5075185;28;19912;-64
2023/08/11 10:45:40;;;;;;;;;;;;;;;30.98;27.76;100831.69;5094874;28;19917;-64
2023/08/11 10:48:06;;;;;;;;;;;;;;;31.28;27.45;100829.94;5095829;28;19916;-64
2023/08/11 10:50:32;;;;;;;;;;;;;;;31.55;28.58;100825.25;5095243;28;19912;-63
2023/08/11 10:53:07;;;;;;;;;;;;;;;31.67;27.54;100822.63;5095798;28;19916;-63
2023/08/11 10:55:34;;;;;;;;;;;;;;;31.64;28.08;100821.31;5095362;28;19912;-63
2023/08/11 10:58:08;;;;;;;;;;;;;;;31.79;27.45;100825.53;5086163;28;19925;-63
2023/08/11 11:00:34;;;;;;;;;;;;;;;31.94;27.79;100828.97;5075553;28;20011;-63
2023/08/11 11:02:59;;;;;;;;;;;;;;;32.14;26.89;100828.28;5075049;28;20015;-64
2023/08/11 11:05:25;;;;;;;;;;;;;;;32.36;27.46;100830.03;5055956;28;20362;-64
2023/08/11 11:07:51;;;;;;;;;;;;;;;32.57;25.74;100834.84;5075345;28;19991;-64
2023/08/11 11:10:18;;;;;;;;;;;;;;;32.65;25.09;100838.75;5075370;28;20359;-63
2023/08/11 11:12:44;;;;;;;;;;;;;;;32.95;25.48;100840.41;5074701;28;19912;-63
2023/08/11 11:15:09;;;;;;;;;;;;;;;33.14;25.12;100842.78;5074650;28;19912;-63
2023/08/11 11:17:35;;;;;;;;;;;;;;;33.41;28.53;100840.59;5074189;28;19916;-63
2023/08/11 11:20:00;;;;;;;;;;;;;;;33.66;26.44;100830.44;5074523;28;19912;-64
2023/08/11 11:22:25;;;;;;;;;;;;;;;33.74;27.19;100840.69;5074354;28;20365;-64
2023/08/11 11:24:51;;;;;;;;;;;;;;;33.51;23.74;100850.53;5074172;28;19936;-64
2023/08/11 11:27:16;;;;;;;;;;;;;;;33.41;23.43;100843.38;5074284;28;19916;-64
2023/08/11 11:29:41;;;;;;;;;;;;;;;33.33;24.73;100841.50;5074417;28;19916;-64
2023/08/11 11:32:06;;;;;;;;;;;;;;;33.31;25.46;100839.03;5074298;28;20369;-64
2023/08/11 11:34:37;;;;;;;;;;;;;;;33.25;23.88;100843.19;5074738;28;19912;-64
2023/08/11 11:37:03;;;;;;;;;;;;;;;33.33;23.31;100841.50;5073464;28;19916;-64
2023/08/11 11:39:28;;;;;;;;;;;;;;;33.19;22.42;100836.19;5074377;28;19980;-64
2023/08/11 11:41:54;;;;;;;;;;;;;;;33.60;23.35;100844.88;5073515;28;19970;-64
2023/08/11 11:44:19;;;;;;;;;;;;;;;33.43;22.18;100840.28;5082299;28;19944;-64
2023/08/11 11:46:45;;;;;;;;;;;;;;;33.30;23.45;100842.16;5094593;28;19923;-63
2023/08/11 11:49:14;;;;;;;;;;;;;;;32.94;23.74;100843.53;5094357;28;19912;-63
2023/08/11 11:51:39;;;;;;;;;;;;;;;32.86;25.29;100848.00;5094633;28;19912;-63
2023/08/11 11:54:04;;;;;;;;;;;;;;;32.93;23.75;100845.50;5094166;28;20548;-63
2023/08/11 11:56:30;;;;;;;;;;;;;;;32.82;23.70;100855.38;5094266;28;20010;-63
2023/08/11 11:58:56;;;;;;;;;;;;;;;32.77;23.07;100847.22;5094234;28;19951;-63
2023/08/11 12:01:24;;;;;;;;;;;;;;;32.71;24.46;100849.38;5094440;28;19999;-63
2023/08/11 12:03:50;;;;;;;;;;;;;;;32.82;24.08;100846.19;5094034;28;19920;-63
2023/08/11 12:06:18;;;;;;;;;;;;;;;32.92;23.88;100838.28;5094372;28;19916;-63
2023/08/11 12:08:43;;;;;;;;;;;;;;;32.84;23.47;100844.72;5094280;28;19919;-63
2023/08/11 12:11:11;;;;;;;;;;;;;;;32.92;23.90;100845.84;5075723;28;19912;-63
2023/08/11 12:13:40;;;;;;;;;;;;;;;32.99;23.52;100848.91;5093904;28;19923;-63
2023/08/11 12:16:07;;;;;;;;;;;;;;;32.81;22.25;100853.75;5093556;28;19916;-63
2023/08/11 12:18:32;;;;;;;;;;;;;;;33.18;23.73;100842.91;5081645;28;19913;-63
2023/08/11 12:20:58;;;;;;;;;;;;;;;33.90;25.17;100840.88;5071339;28;20308;-64
2023/08/11 12:23:24;;;;;;;;;;;;;;;34.39;24.41;100844.97;5073245;28;19963;-64
2023/08/11 12:25:49;;;;;;;;;;;;;;;34.64;23.58;100845.78;5073311;28;19963;-64
2023/08/11 12:28:14;;;;;;;;;;;;;;;34.89;25.26;100832.66;5073259;28;20341;-64
2023/08/11 12:30:40;;;;;;;;;;;;;;;35.21;24.86;100832.88;5073602;28;19913;-64